createdAt,value
2017-11-27T00:07:20.823Z,87.22
2017-11-27T00:09:59.436Z,86.26
2017-11-27T00:12:28.473Z,85.99
2017-11-27T00:14:57.494Z,86.83
2017-11-27T00:17:26.524Z,86.74
2017-11-27T00:19:59.148Z,86.57
2017-11-27T00:25:08.427Z,86.73
2017-11-27T00:27:37.459Z,86.70
2017-11-27T00:30:06.499Z,86.70
2017-11-27T00:32:37.555Z,86.34
2017-11-27T00:35:06.592Z,85.60
2017-11-27T00:37:35.667Z,85.58
2017-11-27T00:40:06.689Z,85.64
2017-11-27T00:42:35.724Z,85.16
2017-11-27T00:45:04.768Z,85.00
2017-11-27T00:47:33.803Z,85.49
2017-11-27T00:50:02.954Z,85.40
2017-11-27T00:52:33.003Z,84.91
2017-11-27T00:55:02.077Z,84.99
2017-11-27T00:57:31.111Z,84.63
2017-11-27T01:00:02.152Z,84.66
2017-11-27T01:02:31.176Z,84.48
2017-11-27T01:05:01.159Z,85.72
2017-11-27T01:07:31.191Z,86.34
2017-11-27T01:10:00.223Z,87.38
2017-11-27T01:12:30.835Z,89.05
2017-11-27T01:14:59.880Z,89.89
2017-11-27T01:17:28.914Z,91.08
2017-11-27T01:19:57.946Z,91.94
2017-11-27T01:22:26.985Z,91.70
2017-11-27T01:24:56.027Z,92.74
2017-11-27T01:27:25.134Z,93.44
2017-11-27T01:29:55.155Z,93.24
2017-11-27T01:32:24.194Z,92.76
2017-11-27T01:34:53.247Z,92.88
2017-11-27T01:37:22.287Z,92.62
2017-11-27T01:39:51.310Z,91.68
2017-11-27T01:42:20.510Z,91.85
2017-11-27T01:44:50.553Z,91.58
2017-11-27T01:47:19.595Z,91.60
2017-11-27T01:49:50.599Z,92.25
2017-11-27T01:52:19.689Z,92.47
2017-11-27T01:54:48.735Z,92.90
2017-11-27T01:57:17.763Z,92.98
2017-11-27T01:59:46.785Z,92.31
2017-11-27T02:02:15.819Z,91.59
2017-11-27T02:04:46.813Z,91.18
2017-11-27T02:07:15.843Z,92.15
2017-11-27T02:09:46.848Z,92.29
2017-11-27T02:12:15.911Z,92.71
2017-11-27T02:14:44.936Z,92.65
2017-11-27T02:17:13.987Z,91.86
2017-11-27T02:19:43.041Z,91.87
2017-11-27T02:22:14.004Z,91.92
2017-11-27T02:24:43.043Z,92.17
2017-11-27T02:27:12.073Z,91.75
2017-11-27T02:29:41.124Z,91.55
2017-11-27T02:32:10.159Z,91.01
2017-11-27T02:34:40.109Z,91.09
2017-11-27T02:37:10.152Z,91.43
2017-11-27T02:39:39.187Z,91.09
2017-11-27T02:42:09.263Z,90.62
2017-11-27T02:47:14.091Z,90.18
2017-11-27T02:49:43.127Z,90.31
2017-11-27T02:52:12.173Z,90.06
2017-11-27T02:54:41.208Z,90.29
2017-11-27T02:57:12.872Z,90.18
2017-11-27T02:59:42.881Z,90.89
2017-11-27T03:02:11.936Z,90.96
2017-11-27T03:04:40.967Z,90.27
2017-11-27T03:07:10.008Z,90.28
2017-11-27T03:09:39.982Z,90.16
2017-11-27T03:12:09.025Z,90.48
2017-11-27T03:14:41.072Z,90.70
2017-11-27T03:17:10.117Z,90.68
2017-11-27T03:19:39.148Z,90.75
2017-11-27T03:22:10.103Z,90.12
2017-11-27T03:24:39.126Z,90.48
2017-11-27T03:27:08.199Z,90.89
2017-11-27T03:29:37.230Z,90.37
2017-11-27T03:32:06.448Z,90.49
2017-11-27T03:34:36.379Z,90.33
2017-11-27T03:37:09.433Z,90.10
2017-11-27T03:39:38.464Z,90.61
2017-11-27T03:42:07.556Z,89.96
2017-11-27T03:44:38.236Z,89.36
2017-11-27T03:47:07.245Z,89.40
2017-11-27T03:49:38.280Z,88.80
2017-11-27T03:52:07.313Z,89.32
2017-11-27T03:54:36.356Z,89.23
2017-11-27T03:57:05.381Z,89.13
2017-11-27T03:59:36.419Z,88.89
2017-11-27T04:02:05.523Z,88.40
2017-11-27T04:07:09.779Z,87.95
2017-11-27T04:09:39.773Z,88.19
2017-11-27T04:12:09.774Z,87.98
2017-11-27T04:14:38.820Z,88.00
2017-11-27T04:17:07.842Z,88.34
2017-11-27T04:19:41.919Z,88.48
2017-11-27T04:22:10.979Z,87.85
2017-11-27T04:24:41.017Z,87.46
2017-11-27T04:27:10.059Z,87.55
2017-11-27T04:29:39.091Z,87.06
2017-11-27T04:32:09.041Z,86.37
2017-11-27T04:34:38.079Z,86.28
2017-11-27T04:37:11.447Z,86.14
2017-11-27T04:42:00.029Z,85.76
2017-11-27T04:44:29.074Z,85.57
2017-11-27T04:46:59.096Z,85.37
2017-11-27T04:49:29.550Z,85.45
2017-11-27T04:51:58.571Z,85.36
2017-11-27T04:54:27.628Z,84.83
2017-11-27T04:56:56.661Z,84.54
2017-11-27T04:59:25.694Z,84.64
2017-11-27T05:01:59.367Z,84.53
2017-11-27T05:04:28.463Z,84.67
2017-11-27T05:07:02.188Z,85.29
2017-11-27T05:09:31.191Z,85.25
2017-11-27T05:12:01.185Z,84.66
2017-11-27T05:14:30.222Z,84.49
2017-11-27T05:16:59.268Z,84.33
2017-11-27T05:19:28.303Z,83.65
2017-11-27T05:29:43.538Z,84.33
2017-11-27T05:32:12.567Z,84.45
2017-11-27T05:34:41.609Z,83.93
2017-11-27T05:37:12.914Z,84.48
2017-11-27T05:39:41.923Z,84.72
2017-11-27T05:42:10.980Z,85.27
2017-11-27T05:44:41.086Z,85.70
2017-11-27T05:47:10.115Z,85.31
2017-11-27T05:49:43.145Z,85.70
2017-11-27T05:52:13.055Z,85.47
2017-11-27T05:54:42.194Z,85.54
2017-11-27T05:57:11.234Z,85.32
2017-11-27T05:59:41.193Z,85.15
2017-11-27T06:02:10.245Z,84.92
2017-11-27T06:04:41.246Z,84.78
2017-11-27T06:07:10.304Z,84.75
2017-11-27T06:09:40.259Z,84.38
2017-11-27T06:12:09.283Z,84.32
2017-11-27T06:14:38.348Z,84.67
2017-11-27T06:17:08.267Z,84.64
2017-11-27T06:19:37.359Z,84.96
2017-11-27T06:22:07.411Z,84.75
2017-11-27T06:24:40.802Z,84.56
2017-11-27T06:27:09.823Z,84.57
2017-11-27T06:29:40.855Z,84.51
2017-11-27T06:32:09.885Z,84.78
2017-11-27T06:34:41.012Z,84.90
2017-11-27T06:37:10.057Z,84.28
2017-11-27T06:42:14.366Z,84.07
2017-11-27T06:44:44.458Z,83.38
2017-11-27T06:47:17.857Z,83.21
2017-11-27T06:49:46.855Z,83.27
2017-11-27T06:52:15.887Z,83.46
2017-11-27T06:54:45.960Z,82.91
2017-11-27T06:57:15.003Z,83.34
2017-11-27T06:59:44.079Z,83.07
2017-11-27T07:02:13.115Z,83.16
2017-11-27T07:04:42.173Z,83.36
2017-11-27T07:07:11.220Z,83.21
2017-11-27T07:09:46.009Z,82.47
2017-11-27T07:12:15.053Z,82.67
2017-11-27T07:14:46.135Z,82.13
2017-11-27T07:17:15.174Z,81.70
2017-11-27T07:19:44.223Z,82.06
2017-11-27T07:22:13.247Z,81.86
2017-11-27T07:24:44.278Z,82.44
2017-11-27T07:27:13.329Z,83.02
2017-11-27T07:29:42.363Z,82.87
2017-11-27T07:32:11.415Z,83.78
2017-11-27T07:34:40.568Z,83.91
2017-11-27T07:37:09.601Z,84.44
2017-11-27T07:42:20.792Z,84.60
2017-11-27T07:47:25.618Z,85.01
2017-11-27T07:50:02.713Z,85.29
2017-11-27T07:52:32.812Z,85.48
2017-11-27T07:55:01.868Z,86.03
2017-11-27T07:57:30.908Z,86.26
2017-11-27T08:00:04.427Z,87.04
2017-11-27T08:02:33.494Z,87.16
2017-11-27T08:05:02.545Z,87.13
2017-11-27T08:07:32.536Z,86.66
2017-11-27T08:10:02.552Z,85.62
2017-11-27T08:12:31.592Z,85.10
2017-11-27T08:17:36.806Z,83.78
2017-11-27T08:20:05.973Z,82.40
2017-11-27T08:22:37.057Z,81.93
2017-11-27T08:25:06.103Z,80.29
2017-11-27T08:27:35.137Z,80.75
2017-11-27T08:30:04.172Z,81.36
2017-11-27T08:32:33.205Z,80.71
2017-11-27T08:35:03.142Z,80.26
2017-11-27T08:37:32.193Z,78.89
2017-11-27T08:40:02.140Z,78.27
2017-11-27T08:42:31.178Z,78.25
2017-11-27T08:45:00.237Z,77.39
2017-11-27T08:47:31.229Z,78.52
2017-11-27T08:50:00.263Z,77.57
2017-11-27T08:52:30.293Z,76.55
2017-11-27T08:54:59.344Z,77.36
2017-11-27T08:59:50.109Z,76.51
2017-11-27T09:04:57.339Z,72.25
2017-11-27T09:07:26.392Z,74.37
2017-11-27T09:09:55.421Z,72.02
2017-11-27T09:12:25.401Z,69.78
2017-11-27T09:14:54.491Z,68.84
2017-11-27T09:17:36.462Z,67.64
2017-11-27T09:20:05.494Z,64.97
2017-11-27T09:22:38.367Z,60.37
2017-11-27T09:25:07.398Z,56.34
2017-11-27T09:27:36.483Z,58.83
2017-11-27T09:30:05.540Z,59.43
2017-11-27T09:32:34.576Z,57.74
2017-11-27T09:35:03.610Z,56.83
2017-11-27T09:37:43.326Z,58.94
2017-11-27T09:40:12.350Z,65.14
2017-11-27T09:45:17.684Z,66.08
2017-11-27T09:47:51.139Z,67.17
2017-11-27T09:50:20.572Z,62.26
2017-11-27T09:52:49.599Z,59.20
2017-11-27T09:55:37.352Z,59.65
2017-11-27T09:58:08.042Z,52.34
2017-11-27T10:00:41.507Z,49.92
2017-11-27T10:11:01.713Z,60.06
2017-11-27T10:13:31.686Z,59.48
2017-11-27T10:16:01.061Z,56.81
2017-11-27T10:18:34.815Z,53.61
2017-11-27T10:21:03.852Z,52.25
2017-11-27T10:23:32.912Z,48.54
2017-11-27T10:26:01.957Z,54.03
2017-11-27T10:28:30.992Z,58.90
2017-11-27T10:31:00.147Z,62.67
2017-11-27T10:36:04.395Z,65.06
2017-11-27T10:41:08.638Z,66.55
2017-11-27T10:43:37.658Z,65.03
2017-11-27T10:46:06.691Z,65.66
2017-11-27T10:48:36.705Z,65.84
2017-11-27T10:51:05.754Z,66.90
2017-11-27T10:53:36.757Z,67.86
2017-11-27T10:56:05.796Z,69.73
2017-11-27T10:58:34.831Z,68.27
2017-11-27T11:01:04.757Z,67.78
2017-11-27T11:03:34.803Z,68.15
2017-11-27T11:06:05.774Z,68.90
2017-11-27T11:08:34.803Z,67.67
2017-11-27T11:11:03.854Z,65.64
2017-11-27T11:13:32.907Z,65.85
2017-11-27T11:16:01.929Z,66.23
2017-11-27T11:18:40.329Z,66.50
2017-11-27T11:21:09.348Z,66.87
2017-11-27T11:26:17.568Z,67.54
2017-11-27T11:28:55.450Z,66.49
2017-11-27T11:31:28.259Z,65.51
2017-11-27T11:33:59.198Z,66.28
2017-11-27T11:36:29.281Z,67.91
2017-11-27T11:38:58.296Z,66.37
2017-11-27T11:44:02.603Z,64.64
2017-11-27T11:46:31.660Z,64.69
2017-11-27T11:49:00.711Z,65.67
2017-11-27T11:54:05.997Z,63.47
2017-11-27T11:56:36.008Z,60.85
2017-11-27T11:59:05.036Z,62.14
2017-11-27T12:01:41.500Z,62.16
2017-11-27T12:04:10.500Z,60.93
2017-11-27T12:06:39.555Z,62.77
2017-11-27T12:09:08.585Z,61.04
2017-11-27T12:11:38.605Z,59.32
2017-11-27T12:14:07.629Z,59.60
2017-11-27T12:16:36.719Z,60.77
2017-11-27T12:19:05.782Z,60.68
2017-11-27T12:21:43.072Z,60.34
2017-11-27T12:24:12.089Z,63.15
2017-11-27T12:26:41.114Z,61.90
2017-11-27T12:29:10.151Z,59.25
2017-11-27T12:31:39.314Z,57.56
2017-11-27T12:34:08.425Z,58.08
2017-11-27T12:36:50.926Z,57.89
2017-11-27T12:39:27.752Z,55.71
2017-11-27T12:41:59.884Z,53.74
2017-11-27T12:44:29.225Z,53.50
2017-11-27T12:46:58.256Z,50.77
2017-11-27T12:52:02.524Z,54.46
2017-11-27T12:54:31.575Z,56.12
2017-11-27T12:57:00.602Z,55.53
2017-11-27T12:59:30.584Z,54.65
2017-11-27T13:01:59.643Z,51.00
2017-11-27T13:04:30.610Z,49.44
2017-11-27T13:06:59.652Z,48.51
2017-11-27T13:09:29.629Z,46.60
2017-11-27T13:11:58.706Z,46.05
2017-11-27T13:14:42.566Z,46.18
2017-11-27T13:19:53.903Z,46.62
2017-11-27T13:22:22.983Z,49.34
2017-11-27T13:24:52.019Z,50.19
2017-11-27T13:29:56.242Z,51.73
2017-11-27T13:32:26.168Z,51.28
2017-11-27T13:37:31.412Z,54.08
2017-11-27T13:40:00.459Z,54.32
2017-11-27T13:42:29.530Z,52.43
2017-11-27T13:44:59.451Z,52.80
2017-11-27T13:50:04.683Z,54.26
2017-11-27T13:52:37.572Z,53.79
2017-11-27T13:55:06.643Z,53.76
2017-11-27T13:57:43.308Z,53.93
2017-11-27T14:02:47.583Z,55.72
2017-11-27T14:05:16.616Z,52.90
2017-11-27T14:07:49.361Z,54.02
2017-11-27T14:10:18.416Z,54.67
2017-11-27T14:12:47.452Z,54.46
2017-11-27T14:15:18.468Z,54.01
2017-11-27T14:20:24.658Z,55.31
2017-11-27T14:22:53.715Z,54.83
2017-11-27T14:28:01.932Z,54.85
2017-11-27T14:30:36.337Z,56.18
2017-11-27T14:33:05.392Z,56.77
2017-11-27T14:38:09.763Z,57.32
2017-11-27T14:40:38.802Z,57.04
2017-11-27T14:43:07.888Z,56.03
2017-11-27T14:45:37.871Z,57.79
2017-11-27T14:50:44.167Z,57.11
2017-11-27T14:53:13.201Z,57.06
2017-11-27T14:55:42.360Z,56.59
2017-11-27T14:58:11.395Z,57.79
2017-11-27T15:00:40.431Z,58.05
2017-11-27T15:05:45.208Z,58.10
2017-11-27T15:08:15.235Z,58.32
2017-11-27T15:10:45.279Z,58.47
2017-11-27T15:13:14.338Z,58.95
2017-11-27T15:15:43.379Z,57.48
2017-11-27T15:18:21.040Z,57.43
2017-11-27T15:23:26.206Z,57.81
2017-11-27T15:25:56.223Z,58.49
2017-11-27T15:28:26.130Z,57.53
2017-11-27T15:30:59.166Z,59.06
2017-11-27T15:33:28.240Z,60.58
2017-11-27T15:35:57.290Z,60.58
2017-11-27T15:38:26.316Z,59.14
2017-11-27T15:43:32.547Z,59.86
2017-11-27T15:46:02.532Z,58.34
2017-11-27T15:48:31.572Z,58.84
2017-11-27T15:51:01.511Z,59.72
2017-11-27T15:53:30.526Z,58.25
2017-11-27T15:56:00.683Z,57.88
2017-11-27T15:58:29.724Z,58.71
2017-11-27T16:00:58.753Z,58.24
2017-11-27T16:03:27.902Z,58.89
2017-11-27T16:08:40.604Z,58.77
2017-11-27T16:11:13.077Z,58.05
2017-11-27T16:13:45.855Z,58.10
2017-11-27T16:16:22.832Z,57.95
2017-11-27T16:19:02.808Z,58.26
2017-11-27T16:21:31.843Z,58.52
2017-11-27T16:24:00.913Z,57.70
2017-11-27T16:26:29.968Z,58.03
2017-11-27T16:28:59.020Z,58.08
2017-11-27T16:31:28.045Z,58.52
2017-11-27T16:34:02.738Z,58.60
2017-11-27T16:36:31.787Z,58.41
2017-11-27T16:39:01.873Z,58.69
2017-11-27T16:41:30.883Z,58.29
2017-11-27T16:44:00.060Z,58.53
2017-11-27T16:46:29.084Z,58.31
2017-11-27T16:48:58.139Z,58.56
2017-11-27T16:51:27.177Z,58.34
2017-11-27T16:53:57.133Z,58.83
2017-11-27T16:56:26.231Z,58.52
2017-11-27T17:01:32.440Z,58.97
2017-11-27T17:04:03.469Z,57.89
2017-11-27T17:06:32.533Z,57.98
2017-11-27T17:09:01.566Z,57.93
2017-11-27T17:11:30.598Z,59.27
2017-11-27T17:14:04.448Z,57.47
2017-11-27T17:16:33.500Z,57.67
2017-11-27T17:19:03.272Z,57.84
2017-11-27T17:21:32.909Z,58.48
2017-11-27T17:24:05.769Z,58.43
2017-11-27T17:26:35.432Z,58.49
2017-11-27T17:31:40.728Z,58.46
2017-11-27T17:34:09.742Z,57.78
2017-11-27T17:36:40.066Z,57.99
2017-11-27T17:39:17.142Z,59.01
2017-11-27T17:44:22.027Z,58.42
2017-11-27T17:46:54.793Z,59.11
2017-11-27T17:49:24.847Z,59.14
2017-11-27T17:54:31.318Z,58.87
2017-11-27T17:57:01.311Z,58.89
2017-11-27T17:59:31.435Z,60.16
2017-11-27T18:02:02.359Z,59.51
2017-11-27T18:04:33.585Z,60.37
2017-11-27T18:09:51.598Z,61.19
2017-11-27T18:12:20.635Z,60.98
2017-11-27T18:14:49.692Z,61.50
2017-11-27T18:19:57.074Z,61.00
2017-11-27T18:22:26.086Z,61.63
2017-11-27T18:25:00.099Z,60.97
2017-11-27T18:27:33.988Z,61.72
2017-11-27T18:32:38.275Z,62.47
2017-11-27T18:35:10.504Z,63.32
2017-11-27T18:37:39.539Z,63.39
2017-11-27T18:40:16.607Z,63.79
2017-11-27T18:42:45.648Z,64.35
2017-11-27T18:45:15.703Z,63.48
2017-11-27T18:47:44.733Z,64.18
2017-11-27T18:50:13.999Z,64.45
2017-11-27T18:52:43.023Z,64.67
2017-11-27T18:55:19.318Z,64.39
2017-11-27T18:57:48.376Z,64.22
2017-11-27T19:00:22.083Z,64.22
2017-11-27T19:02:51.120Z,64.49
2017-11-27T19:05:23.867Z,63.97
2017-11-27T19:07:53.052Z,64.81
2017-11-27T19:12:57.350Z,64.29
2017-11-27T19:15:27.445Z,65.32
2017-11-27T19:18:01.856Z,64.85
2017-11-27T19:20:30.891Z,64.65
2017-11-27T19:22:59.947Z,65.09
2017-11-27T19:25:28.987Z,65.08
2017-11-27T19:27:58.977Z,65.41
2017-11-27T19:30:30.006Z,66.06
2017-11-27T19:33:00.670Z,65.74
2017-11-27T19:35:30.677Z,65.85
2017-11-27T19:38:03.283Z,66.93
2017-11-27T19:40:33.261Z,66.42
2017-11-27T19:43:05.312Z,66.28
2017-11-27T19:45:34.409Z,66.57
2017-11-27T19:50:38.705Z,65.95
2017-11-27T19:53:08.694Z,66.18
2017-11-27T19:55:37.788Z,66.42
2017-11-27T19:58:08.827Z,65.85
2017-11-27T20:00:38.847Z,66.92
2017-11-27T20:05:43.111Z,66.20
2017-11-27T20:08:14.201Z,65.95
2017-11-27T20:10:43.255Z,66.42
2017-11-27T20:13:12.319Z,65.77
2017-11-27T20:15:41.357Z,65.33
2017-11-27T20:18:12.370Z,64.60
2017-11-27T20:20:41.472Z,64.33
2017-11-27T20:25:45.760Z,64.78
2017-11-27T20:28:15.738Z,63.84
2017-11-27T20:30:44.765Z,63.66
2017-11-27T20:33:14.765Z,64.16
2017-11-27T20:35:44.024Z,63.68
2017-11-27T20:38:13.909Z,63.88
2017-11-27T20:40:42.928Z,63.70
2017-11-27T20:43:12.989Z,63.83
2017-11-27T20:45:42.040Z,64.20
2017-11-27T20:48:11.072Z,64.06
2017-11-27T20:50:40.127Z,64.30
2017-11-27T20:53:11.119Z,63.42
2017-11-27T20:55:40.161Z,63.84
2017-11-27T20:58:10.320Z,63.99
2017-11-27T21:00:39.363Z,63.74
2017-11-27T21:03:09.340Z,63.55
2017-11-27T21:05:38.377Z,63.64
2017-11-27T21:08:07.438Z,64.02
2017-11-27T21:10:36.463Z,64.76
2017-11-27T21:13:09.544Z,64.30
2017-11-27T21:15:38.595Z,63.92
2017-11-27T21:18:13.399Z,64.29
2017-11-27T21:23:20.589Z,64.58
2017-11-27T21:25:49.711Z,64.74
2017-11-27T21:28:20.242Z,64.98
2017-11-27T21:30:49.280Z,64.51
2017-11-27T21:33:19.247Z,64.13
2017-11-27T21:35:48.360Z,64.76
2017-11-27T21:38:18.436Z,64.14
2017-11-27T21:40:48.303Z,64.09
2017-11-27T21:43:20.880Z,64.21
2017-11-27T21:45:50.654Z,64.50
2017-11-27T21:48:19.695Z,64.19
2017-11-27T21:50:49.493Z,64.12
2017-11-27T21:53:19.523Z,63.91
2017-11-27T21:55:54.929Z,64.59
2017-11-27T21:58:26.252Z,64.81
2017-11-27T22:00:55.280Z,64.57
2017-11-27T22:03:24.303Z,64.45
2017-11-27T22:05:53.588Z,64.23
2017-11-27T22:11:01.836Z,64.27
2017-11-27T22:13:30.870Z,64.44
2017-11-27T22:15:59.934Z,63.90
2017-11-27T22:18:29.001Z,63.48
2017-11-27T22:20:58.027Z,64.11
2017-11-27T22:23:27.127Z,64.23
2017-11-27T22:25:56.177Z,64.10
2017-11-27T22:28:25.239Z,63.93
2017-11-27T22:30:54.279Z,63.43
2017-11-27T22:33:23.325Z,63.02
2017-11-27T22:35:52.358Z,62.67
2017-11-27T22:38:21.480Z,63.02
2017-11-27T22:40:51.447Z,63.25
2017-11-27T22:45:55.705Z,62.99
2017-11-27T22:48:24.736Z,63.69
2017-11-27T22:50:53.813Z,62.66
2017-11-27T22:53:22.844Z,63.72
2017-11-27T22:55:51.883Z,62.85
2017-11-27T22:58:20.923Z,63.23
2017-11-27T23:00:50.893Z,62.97
2017-11-27T23:03:19.930Z,63.49
